Krabi, Thailand

10:52 PM ICT on February 22, 2017 (GMT +0700)
Ao Nang Weather Station | | Change Station

Elev 177 ft 8.05 °N, 98.84 °E | Updated 48 seconds ago

Clear
Clear
79.3 °F
Feels Like 84 °F
N
0.0
Wind Variable Wind from SE
Gusts 0.0 mph

Today
High -- | Low -- °F
--% Chance of Precip.
Yesterday
High -- | Low -- °F
Precip. -- in
Pressure 29.92 in
Visibility 4.3 miles
Clouds Few 1600 ft
Scattered Clouds 1800 ft
Mostly Cloudy 10000 ft
Heat Index 84 °F
Dew Point 76 °F
Humidity 91%
Rainfall 0.00 in
Snow Depth Not available.
6:40 AM 6:35 PM
Waning Crescent, 16% visible
METAR VTSP 221530Z VRB02KT 7000 FEW016CB SCT018 BKN100 26/23 Q1013 NOSIG
Pressure 29.92 in
Visibility 4.3 miles
Clouds Few 1600 ft
Scattered Clouds 1800 ft
Mostly Cloudy 10000 ft
Heat Index 84 °F
Dew Point 76 °F
Humidity 91%
Rainfall 0.00 in
Snow Depth Not available.
6:40 AM 6:35 PM
Waning Crescent, 16% visible
METAR VTSP 221530Z VRB02KT 7000 FEW016CB SCT018 BKN100 26/23 Q1013 NOSIG

Get Your Daily Forecast Email!

Thanks for signing up!

Be on the lookout for a verification email in your inbox.

You'll start receiving the daily forecast at 8 AM.

×

10-Day Weather Forecast

No radar image for this location.
×

Almanac

Astronomy

Feb. 22, 2017 Rise Set
Actual Time
Civil Twilight
Nautical Twilight
Astronomical Twilight
Moon
Length of Visible Light
Length of Day
Tomorrow will be .
, % of the Moon is Illuminated

Today's Extremes

Country Highs Country Lows

Community

WunderPhotos

Upload Photos

1,962,540 photos uploaded!

WunderBlog® & News

Nearby

Air Quality

  Air Quality AQ Index Pollutant
Not available.

Snow Depth

Station Depth Elevation

Earthquake Activity

City Distance Mag. Time & Date
Minimum magnitude displayed is 2.5.

Coastal Water Temperatures

Place Temperature

Stations

Nearby Weather Stations

Station Location Temp. Windchill Dew Point Humidity Wind Precip. Elev Updated Type